sensor_id;sensor_type;location;lat;lon;timestamp;P1;durP1;ratioP1;P2;durP2;ratioP2
48963;SDS011;34776;48.180;16.420;2023-08-06T00:00:11;2.75;;;2.53;;
48963;SDS011;34776;48.180;16.420;2023-08-06T00:02:37;0.70;;;0.70;;
48963;SDS011;34776;48.180;16.420;2023-08-06T00:05:03;0.73;;;0.70;;
48963;SDS011;34776;48.180;16.420;2023-08-06T00:07:30;1.13;;;0.75;;
48963;SDS011;34776;48.180;16.420;2023-08-06T00:09:55;0.70;;;0.70;;
48963;SDS011;34776;48.180;16.420;2023-08-06T00:12:20;0.60;;;0.60;;
48963;SDS011;34776;48.180;16.420;2023-08-06T00:14:49;0.70;;;0.70;;
48963;SDS011;34776;48.180;16.420;2023-08-06T00:17:15;0.70;;;0.70;;
48963;SDS011;34776;48.180;16.420;2023-08-06T00:19:42;0.80;;;0.50;;
48963;SDS011;34776;48.180;16.420;2023-08-06T00:22:07;0.47;;;0.47;;
48963;SDS011;34776;48.180;16.420;2023-08-06T00:24:33;0.55;;;0.55;;
48963;SDS011;34776;48.180;16.420;2023-08-06T00:27:00;0.50;;;0.50;;
48963;SDS011;34776;48.180;16.420;2023-08-06T00:29:27;0.50;;;0.50;;
48963;SDS011;34776;48.180;16.420;2023-08-06T00:31:52;0.77;;;0.77;;
48963;SDS011;34776;48.180;16.420;2023-08-06T00:34:18;0.40;;;0.40;;
48963;SDS011;34776;48.180;16.420;2023-08-06T00:36:49;0.63;;;0.60;;
48963;SDS011;34776;48.180;16.420;2023-08-06T00:39:14;0.55;;;0.55;;
48963;SDS011;34776;48.180;16.420;2023-08-06T00:41:40;0.50;;;0.50;;
48963;SDS011;34776;48.180;16.420;2023-08-06T00:44:05;0.70;;;0.50;;
48963;SDS011;34776;48.180;16.420;2023-08-06T00:46:31;0.60;;;0.60;;
48963;SDS011;34776;48.180;16.420;2023-08-06T00:48:57;0.45;;;0.45;;
48963;SDS011;34776;48.180;16.420;2023-08-06T00:51:22;1.10;;;0.52;;
48963;SDS011;34776;48.180;16.420;2023-08-06T00:53:50;0.50;;;0.50;;
48963;SDS011;34776;48.180;16.420;2023-08-06T00:56:16;0.65;;;0.65;;
48963;SDS011;34776;48.180;16.420;2023-08-06T00:58:41;1.70;;;0.45;;
48963;SDS011;34776;48.180;16.420;2023-08-06T01:01:07;0.50;;;0.50;;
48963;SDS011;34776;48.180;16.420;2023-08-06T01:03:34;0.50;;;0.50;;
48963;SDS011;34776;48.180;16.420;2023-08-06T01:05:59;0.50;;;0.50;;
48963;SDS011;34776;48.180;16.420;2023-08-06T01:08:30;0.50;;;0.50;;
48963;SDS011;34776;48.180;16.420;2023-08-06T01:11:33;0.70;;;0.70;;
48963;SDS011;34776;48.180;16.420;2023-08-06T01:14:18;0.70;;;0.57;;
48963;SDS011;34776;48.180;16.420;2023-08-06T01:16:53;0.60;;;0.60;;
48963;SDS011;34776;48.180;16.420;2023-08-06T01:19:19;0.55;;;0.55;;
48963;SDS011;34776;48.180;16.420;2023-08-06T01:21:45;0.60;;;0.50;;
48963;SDS011;34776;48.180;16.420;2023-08-06T01:24:11;0.60;;;0.60;;
48963;SDS011;34776;48.180;16.420;2023-08-06T01:26:38;0.50;;;0.50;;
48963;SDS011;34776;48.180;16.420;2023-08-06T01:29:08;0.55;;;0.55;;
48963;SDS011;34776;48.180;16.420;2023-08-06T01:31:38;1.83;;;0.93;;
48963;SDS011;34776;48.180;16.420;2023-08-06T01:34:09;0.50;;;0.47;;
48963;SDS011;34776;48.180;16.420;2023-08-06T01:36:38;0.73;;;0.50;;
48963;SDS011;34776;48.180;16.420;2023-08-06T01:39:06;0.82;;;0.63;;
48963;SDS011;34776;48.180;16.420;2023-08-06T01:41:32;0.50;;;0.50;;
48963;SDS011;34776;48.180;16.420;2023-08-06T01:43:59;0.60;;;0.60;;
48963;SDS011;34776;48.180;16.420;2023-08-06T01:46:25;2.67;;;0.50;;
48963;SDS011;34776;48.180;16.420;2023-08-06T01:48:50;0.68;;;0.68;;
48963;SDS011;34776;48.180;16.420;2023-08-06T01:51:15;0.65;;;0.60;;
48963;SDS011;34776;48.180;16.420;2023-08-06T01:53:41;1.90;;;0.80;;
48963;SDS011;34776;48.180;16.420;2023-08-06T01:56:06;0.55;;;0.55;;
48963;SDS011;34776;48.180;16.420;2023-08-06T01:58:32;0.65;;;0.65;;
48963;SDS011;34776;48.180;16.420;2023-08-06T02:00:57;0.80;;;0.77;;
48963;SDS011;34776;48.180;16.420;2023-08-06T02:03:22;0.82;;;0.70;;
48963;SDS011;34776;48.180;16.420;2023-08-06T02:05:48;0.80;;;0.80;;
48963;SDS011;34776;48.180;16.420;2023-08-06T02:08:13;0.60;;;0.60;;
48963;SDS011;34776;48.180;16.420;2023-08-06T02:10:38;0.90;;;0.80;;
48963;SDS011;34776;48.180;16.420;2023-08-06T02:13:04;0.70;;;0.60;;
48963;SDS011;34776;48.180;16.420;2023-08-06T02:15:29;0.70;;;0.70;;
48963;SDS011;34776;48.180;16.420;2023-08-06T02:17:54;0.80;;;0.80;;
48963;SDS011;34776;48.180;16.420;2023-08-06T02:20:20;0.75;;;0.75;;
48963;SDS011;34776;48.180;16.420;2023-08-06T02:22:46;1.23;;;0.85;;
48963;SDS011;34776;48.180;16.420;2023-08-06T02:25:12;1.10;;;1.00;;
48963;SDS011;34776;48.180;16.420;2023-08-06T02:27:37;0.70;;;0.70;;
48963;SDS011;34776;48.180;16.420;2023-08-06T02:30:03;0.90;;;0.90;;
48963;SDS011;34776;48.180;16.420;2023-08-06T02:32:29;0.70;;;0.70;;
48963;SDS011;34776;48.180;16.420;2023-08-06T02:34:56;2.17;;;0.88;;
48963;SDS011;34776;48.180;16.420;2023-08-06T02:37:22;0.90;;;0.90;;
48963;SDS011;34776;48.180;16.420;2023-08-06T02:39:47;0.80;;;0.80;;
48963;SDS011;34776;48.180;16.420;2023-08-06T02:42:14;0.80;;;0.80;;
48963;SDS011;34776;48.180;16.420;2023-08-06T02:44:39;0.77;;;0.77;;
48963;SDS011;34776;48.180;16.420;2023-08-06T02:47:05;1.17;;;1.08;;
48963;SDS011;34776;48.180;16.420;2023-08-06T02:49:31;1.40;;;0.98;;
48963;SDS011;34776;48.180;16.420;2023-08-06T02:51:56;1.25;;;0.80;;
48963;SDS011;34776;48.180;16.420;2023-08-06T02:54:21;0.93;;;0.90;;
48963;SDS011;34776;48.180;16.420;2023-08-06T02:56:48;0.80;;;0.80;;
48963;SDS011;34776;48.180;16.420;2023-08-06T02:59:13;2.45;;;1.10;;
48963;SDS011;34776;48.180;16.420;2023-08-06T03:01:40;1.30;;;0.75;;
48963;SDS011;34776;48.180;16.420;2023-08-06T03:04:05;0.90;;;0.90;;
48963;SDS011;34776;48.180;16.420;2023-08-06T03:06:31;0.90;;;0.90;;
48963;SDS011;34776;48.180;16.420;2023-08-06T03:08:56;1.05;;;1.00;;
48963;SDS011;34776;48.180;16.420;2023-08-06T03:11:21;0.70;;;0.70;;
48963;SDS011;34776;48.180;16.420;2023-08-06T03:13:47;1.05;;;1.05;;
48963;SDS011;34776;48.180;16.420;2023-08-06T03:16:13;1.23;;;0.80;;
48963;SDS011;34776;48.180;16.420;2023-08-06T03:18:38;1.00;;;1.00;;
48963;SDS011;34776;48.180;16.420;2023-08-06T03:21:04;1.08;;;0.98;;
48963;SDS011;34776;48.180;16.420;2023-08-06T03:23:29;0.98;;;0.98;;
48963;SDS011;34776;48.180;16.420;2023-08-06T03:25:54;1.40;;;1.30;;
48963;SDS011;34776;48.180;16.420;2023-08-06T03:28:20;1.02;;;1.02;;
48963;SDS011;34776;48.180;16.420;2023-08-06T03:30:45;1.67;;;1.17;;
48963;SDS011;34776;48.180;16.420;2023-08-06T03:33:11;1.17;;;1.15;;
48963;SDS011;34776;48.180;16.420;2023-08-06T03:35:37;1.38;;;1.27;;
48963;SDS011;34776;48.180;16.420;2023-08-06T03:38:03;2.85;;;1.33;;
48963;SDS011;34776;48.180;16.420;2023-08-06T03:40:28;1.10;;;1.08;;
48963;SDS011;34776;48.180;16.420;2023-08-06T03:42:55;1.13;;;1.13;;
48963;SDS011;34776;48.180;16.420;2023-08-06T03:45:20;1.30;;;1.20;;
48963;SDS011;34776;48.180;16.420;2023-08-06T03:47:45;2.10;;;1.70;;
48963;SDS011;34776;48.180;16.420;2023-08-06T03:50:11;1.35;;;1.25;;
48963;SDS011;34776;48.180;16.420;2023-08-06T03:52:36;1.58;;;1.42;;
48963;SDS011;34776;48.180;16.420;2023-08-06T03:55:01;1.88;;;1.50;;
48963;SDS011;34776;48.180;16.420;2023-08-06T03:57:27;1.63;;;1.50;;
48963;SDS011;34776;48.180;16.420;2023-08-06T03:59:53;2.50;;;1.75;;
48963;SDS011;34776;48.180;16.420;2023-08-06T04:02:19;1.88;;;1.77;;
48963;SDS011;34776;48.180;16.420;2023-08-06T04:04:45;1.40;;;1.30;;
48963;SDS011;34776;48.180;16.420;2023-08-06T04:07:10;1.70;;;1.60;;
48963;SDS011;34776;48.180;16.420;2023-08-06T04:09:50;1.88;;;1.75;;
48963;SDS011;34776;48.180;16.420;2023-08-06T04:12:21;2.00;;;1.80;;
48963;SDS011;34776;48.180;16.420;2023-08-06T04:14:47;2.65;;;1.70;;
48963;SDS011;34776;48.180;16.420;2023-08-06T04:17:12;1.63;;;1.52;;
48963;SDS011;34776;48.180;16.420;2023-08-06T04:19:38;1.70;;;1.60;;
48963;SDS011;34776;48.180;16.420;2023-08-06T04:22:03;3.25;;;1.85;;
48963;SDS011;34776;48.180;16.420;2023-08-06T04:24:28;4.72;;;1.75;;
48963;SDS011;34776;48.180;16.420;2023-08-06T04:26:55;2.00;;;1.50;;
48963;SDS011;34776;48.180;16.420;2023-08-06T04:29:22;2.97;;;1.83;;
48963;SDS011;34776;48.180;16.420;2023-08-06T04:31:47;1.70;;;1.60;;
48963;SDS011;34776;48.180;16.420;2023-08-06T04:34:12;1.70;;;1.60;;
48963;SDS011;34776;48.180;16.420;2023-08-06T04:36:38;2.50;;;1.70;;
48963;SDS011;34776;48.180;16.420;2023-08-06T04:39:04;1.77;;;1.67;;
48963;SDS011;34776;48.180;16.420;2023-08-06T04:41:30;2.25;;;1.50;;
48963;SDS011;34776;48.180;16.420;2023-08-06T04:43:56;1.98;;;1.77;;
48963;SDS011;34776;48.180;16.420;2023-08-06T04:46:22;2.05;;;1.85;;
48963;SDS011;34776;48.180;16.420;2023-08-06T04:48:47;3.50;;;1.95;;
48963;SDS011;34776;48.180;16.420;2023-08-06T04:51:13;2.38;;;1.98;;
48963;SDS011;34776;48.180;16.420;2023-08-06T04:53:40;2.15;;;1.58;;
48963;SDS011;34776;48.180;16.420;2023-08-06T04:56:05;3.22;;;1.65;;
48963;SDS011;34776;48.180;16.420;2023-08-06T04:58:31;1.92;;;1.48;;
48963;SDS011;34776;48.180;16.420;2023-08-06T05:00:59;1.75;;;1.38;;
48963;SDS011;34776;48.180;16.420;2023-08-06T05:03:29;1.55;;;1.45;;
48963;SDS011;34776;48.180;16.420;2023-08-06T05:05:55;2.17;;;1.85;;
48963;SDS011;34776;48.180;16.420;2023-08-06T05:08:20;2.20;;;1.85;;
48963;SDS011;34776;48.180;16.420;2023-08-06T05:10:45;1.63;;;1.45;;
48963;SDS011;34776;48.180;16.420;2023-08-06T05:13:11;4.18;;;1.83;;
48963;SDS011;34776;48.180;16.420;2023-08-06T05:15:37;2.10;;;1.90;;
48963;SDS011;34776;48.180;16.420;2023-08-06T05:18:04;3.35;;;1.77;;
48963;SDS011;34776;48.180;16.420;2023-08-06T05:20:30;2.08;;;1.67;;
48963;SDS011;34776;48.180;16.420;2023-08-06T05:22:55;1.73;;;1.63;;
48963;SDS011;34776;48.180;16.420;2023-08-06T05:25:21;2.65;;;1.60;;
48963;SDS011;34776;48.180;16.420;2023-08-06T05:27:46;2.00;;;1.80;;
48963;SDS011;34776;48.180;16.420;2023-08-06T05:30:11;1.80;;;1.70;;
48963;SDS011;34776;48.180;16.420;2023-08-06T05:32:41;1.92;;;1.80;;
48963;SDS011;34776;48.180;16.420;2023-08-06T05:35:06;2.25;;;1.88;;
48963;SDS011;34776;48.180;16.420;2023-08-06T05:37:32;1.55;;;1.45;;
48963;SDS011;34776;48.180;16.420;2023-08-06T05:39:57;2.88;;;1.90;;
48963;SDS011;34776;48.180;16.420;2023-08-06T05:42:22;1.95;;;1.85;;
48963;SDS011;34776;48.180;16.420;2023-08-06T05:44:48;2.05;;;1.73;;
48963;SDS011;34776;48.180;16.420;2023-08-06T05:47:13;2.00;;;1.80;;
48963;SDS011;34776;48.180;16.420;2023-08-06T05:49:39;2.00;;;1.80;;
48963;SDS011;34776;48.180;16.420;2023-08-06T05:52:05;2.15;;;1.83;;
48963;SDS011;34776;48.180;16.420;2023-08-06T05:54:31;3.67;;;1.65;;
48963;SDS011;34776;48.180;16.420;2023-08-06T05:56:57;2.00;;;1.63;;
48963;SDS011;34776;48.180;16.420;2023-08-06T05:59:22;2.28;;;1.88;;
48963;SDS011;34776;48.180;16.420;2023-08-06T06:01:47;2.17;;;1.67;;
48963;SDS011;34776;48.180;16.420;2023-08-06T06:04:13;2.30;;;1.77;;
48963;SDS011;34776;48.180;16.420;2023-08-06T06:06:38;2.47;;;1.80;;
48963;SDS011;34776;48.180;16.420;2023-08-06T06:09:04;1.75;;;1.63;;
48963;SDS011;34776;48.180;16.420;2023-08-06T06:11:29;1.55;;;1.45;;
48963;SDS011;34776;48.180;16.420;2023-08-06T06:13:54;1.60;;;1.50;;
48963;SDS011;34776;48.180;16.420;2023-08-06T06:16:20;1.95;;;1.85;;
48963;SDS011;34776;48.180;16.420;2023-08-06T06:18:45;1.73;;;1.63;;
48963;SDS011;34776;48.180;16.420;2023-08-06T06:21:12;1.70;;;1.60;;
48963;SDS011;34776;48.180;16.420;2023-08-06T06:23:37;2.13;;;1.80;;
48963;SDS011;34776;48.180;16.420;2023-08-06T06:26:02;2.97;;;1.70;;
48963;SDS011;34776;48.180;16.420;2023-08-06T06:28:28;2.28;;;1.63;;
48963;SDS011;34776;48.180;16.420;2023-08-06T06:30:53;1.80;;;1.70;;
48963;SDS011;34776;48.180;16.420;2023-08-06T06:33:18;1.60;;;1.50;;
48963;SDS011;34776;48.180;16.420;2023-08-06T06:35:44;3.70;;;3.28;;
48963;SDS011;34776;48.180;16.420;2023-08-06T06:38:09;1.70;;;1.60;;
48963;SDS011;34776;48.180;16.420;2023-08-06T06:40:35;1.80;;;1.70;;
48963;SDS011;34776;48.180;16.420;2023-08-06T06:43:00;1.73;;;1.63;;
48963;SDS011;34776;48.180;16.420;2023-08-06T06:45:25;1.63;;;1.52;;
48963;SDS011;34776;48.180;16.420;2023-08-06T06:47:51;2.50;;;1.50;;
48963;SDS011;34776;48.180;16.420;2023-08-06T06:50:16;1.50;;;1.40;;
48963;SDS011;34776;48.180;16.420;2023-08-06T06:52:42;1.38;;;1.27;;
48963;SDS011;34776;48.180;16.420;2023-08-06T06:55:07;1.92;;;1.70;;
48963;SDS011;34776;48.180;16.420;2023-08-06T06:57:32;1.55;;;1.45;;
48963;SDS011;34776;48.180;16.420;2023-08-06T06:59:58;1.80;;;1.70;;
48963;SDS011;34776;48.180;16.420;2023-08-06T07:02:23;1.63;;;1.52;;
48963;SDS011;34776;48.180;16.420;2023-08-06T07:04:49;1.98;;;1.67;;
48963;SDS011;34776;48.180;16.420;2023-08-06T07:07:15;4.25;;;3.85;;
48963;SDS011;34776;48.180;16.420;2023-08-06T07:09:40;2.10;;;2.00;;
48963;SDS011;34776;48.180;16.420;2023-08-06T07:12:07;2.50;;;2.30;;
48963;SDS011;34776;48.180;16.420;2023-08-06T07:14:33;2.00;;;1.80;;
48963;SDS011;34776;48.180;16.420;2023-08-06T07:16:58;2.15;;;1.90;;
48963;SDS011;34776;48.180;16.420;2023-08-06T07:19:23;1.60;;;1.50;;
48963;SDS011;34776;48.180;16.420;2023-08-06T07:21:49;1.67;;;1.58;;
48963;SDS011;34776;48.180;16.420;2023-08-06T07:24:14;2.10;;;1.60;;
48963;SDS011;34776;48.180;16.420;2023-08-06T07:26:39;1.50;;;1.35;;
48963;SDS011;34776;48.180;16.420;2023-08-06T07:29:05;1.48;;;1.30;;
48963;SDS011;34776;48.180;16.420;2023-08-06T07:31:30;1.70;;;1.60;;
48963;SDS011;34776;48.180;16.420;2023-08-06T07:33:56;2.15;;;1.48;;
48963;SDS011;34776;48.180;16.420;2023-08-06T07:36:21;1.52;;;1.42;;
48963;SDS011;34776;48.180;16.420;2023-08-06T07:38:46;2.47;;;1.58;;
48963;SDS011;34776;48.180;16.420;2023-08-06T07:41:16;1.40;;;1.30;;
48963;SDS011;34776;48.180;16.420;2023-08-06T07:43:41;2.50;;;1.58;;
48963;SDS011;34776;48.180;16.420;2023-08-06T07:46:07;1.60;;;1.50;;
48963;SDS011;34776;48.180;16.420;2023-08-06T07:48:33;2.30;;;1.70;;
48963;SDS011;34776;48.180;16.420;2023-08-06T07:50:58;1.67;;;1.52;;
48963;SDS011;34776;48.180;16.420;2023-08-06T07:53:24;3.38;;;1.90;;
48963;SDS011;34776;48.180;16.420;2023-08-06T07:55:53;2.05;;;1.80;;
48963;SDS011;34776;48.180;16.420;2023-08-06T07:58:23;3.30;;;3.00;;
48963;SDS011;34776;48.180;16.420;2023-08-06T08:00:49;1.80;;;1.70;;
48963;SDS011;34776;48.180;16.420;2023-08-06T08:03:15;2.28;;;1.70;;
48963;SDS011;34776;48.180;16.420;2023-08-06T08:05:41;3.20;;;1.50;;
48963;SDS011;34776;48.180;16.420;2023-08-06T08:08:08;1.85;;;1.75;;
48963;SDS011;34776;48.180;16.420;2023-08-06T08:10:35;1.88;;;1.70;;
48963;SDS011;34776;48.180;16.420;2023-08-06T08:13:01;2.22;;;1.42;;
48963;SDS011;34776;48.180;16.420;2023-08-06T08:15:31;2.13;;;1.95;;
48963;SDS011;34776;48.180;16.420;2023-08-06T08:17:57;1.77;;;1.67;;
48963;SDS011;34776;48.180;16.420;2023-08-06T08:20:23;2.50;;;2.10;;
48963;SDS011;34776;48.180;16.420;2023-08-06T08:22:49;1.85;;;1.75;;
48963;SDS011;34776;48.180;16.420;2023-08-06T08:25:15;2.03;;;1.80;;
48963;SDS011;34776;48.180;16.420;2023-08-06T08:27:41;1.90;;;1.77;;
48963;SDS011;34776;48.180;16.420;2023-08-06T08:30:07;2.20;;;2.00;;
48963;SDS011;34776;48.180;16.420;2023-08-06T08:32:33;1.90;;;1.70;;
48963;SDS011;34776;48.180;16.420;2023-08-06T08:34:58;1.60;;;1.50;;
48963;SDS011;34776;48.180;16.420;2023-08-06T08:37:24;1.70;;;1.60;;
48963;SDS011;34776;48.180;16.420;2023-08-06T08:39:49;2.40;;;2.20;;
48963;SDS011;34776;48.180;16.420;2023-08-06T08:42:15;2.10;;;2.00;;
48963;SDS011;34776;48.180;16.420;2023-08-06T08:44:44;3.45;;;2.05;;
48963;SDS011;34776;48.180;16.420;2023-08-06T08:47:10;2.28;;;2.08;;
48963;SDS011;34776;48.180;16.420;2023-08-06T08:49:36;2.92;;;1.80;;
48963;SDS011;34776;48.180;16.420;2023-08-06T08:52:02;3.72;;;3.42;;
48963;SDS011;34776;48.180;16.420;2023-08-06T08:54:31;2.45;;;2.25;;
48963;SDS011;34776;48.180;16.420;2023-08-06T08:56:57;3.10;;;1.98;;
48963;SDS011;34776;48.180;16.420;2023-08-06T08:59:23;2.13;;;1.88;;
48963;SDS011;34776;48.180;16.420;2023-08-06T09:01:48;2.13;;;1.92;;
48963;SDS011;34776;48.180;16.420;2023-08-06T09:04:18;2.17;;;2.00;;
48963;SDS011;34776;48.180;16.420;2023-08-06T09:06:46;2.17;;;1.98;;
48963;SDS011;34776;48.180;16.420;2023-08-06T09:09:36;3.22;;;2.00;;
48963;SDS011;34776;48.180;16.420;2023-08-06T09:12:05;3.65;;;2.10;;
48963;SDS011;34776;48.180;16.420;2023-08-06T09:14:53;2.80;;;2.50;;
48963;SDS011;34776;48.180;16.420;2023-08-06T09:17:19;2.92;;;2.38;;
48963;SDS011;34776;48.180;16.420;2023-08-06T09:19:45;2.05;;;1.88;;
48963;SDS011;34776;48.180;16.420;2023-08-06T09:22:12;4.10;;;3.05;;
48963;SDS011;34776;48.180;16.420;2023-08-06T09:24:42;3.35;;;2.22;;
48963;SDS011;34776;48.180;16.420;2023-08-06T09:27:12;4.82;;;2.28;;
48963;SDS011;34776;48.180;16.420;2023-08-06T09:29:45;2.22;;;2.10;;
48963;SDS011;34776;48.180;16.420;2023-08-06T09:32:11;2.33;;;2.13;;
48963;SDS011;34776;48.180;16.420;2023-08-06T09:34:47;2.45;;;2.30;;
48963;SDS011;34776;48.180;16.420;2023-08-06T09:37:20;4.53;;;2.50;;
48963;SDS011;34776;48.180;16.420;2023-08-06T09:39:48;2.72;;;2.40;;
48963;SDS011;34776;48.180;16.420;2023-08-06T09:42:16;2.05;;;1.95;;
48963;SDS011;34776;48.180;16.420;2023-08-06T09:44:42;3.08;;;2.47;;
48963;SDS011;34776;48.180;16.420;2023-08-06T09:47:10;2.55;;;2.35;;
48963;SDS011;34776;48.180;16.420;2023-08-06T09:52:00;2.63;;;2.42;;
48963;SDS011;34776;48.180;16.420;2023-08-06T09:54:27;2.42;;;2.22;;
48963;SDS011;34776;48.180;16.420;2023-08-06T09:56:56;2.38;;;2.00;;
48963;SDS011;34776;48.180;16.420;2023-08-06T09:59:23;2.45;;;2.25;;
48963;SDS011;34776;48.180;16.420;2023-08-06T10:01:49;2.40;;;2.20;;
48963;SDS011;34776;48.180;16.420;2023-08-06T10:04:15;2.67;;;2.08;;
48963;SDS011;34776;48.180;16.420;2023-08-06T10:06:42;1.85;;;1.75;;
48963;SDS011;34776;48.180;16.420;2023-08-06T10:09:08;2.30;;;2.10;;
48963;SDS011;34776;48.180;16.420;2023-08-06T10:11:34;2.30;;;2.10;;
48963;SDS011;34776;48.180;16.420;2023-08-06T10:14:10;2.10;;;1.90;;
48963;SDS011;34776;48.180;16.420;2023-08-06T10:16:39;2.95;;;1.85;;
48963;SDS011;34776;48.180;16.420;2023-08-06T10:19:09;2.35;;;1.90;;
48963;SDS011;34776;48.180;16.420;2023-08-06T10:21:40;2.10;;;2.00;;
48963;SDS011;34776;48.180;16.420;2023-08-06T10:24:12;2.72;;;1.92;;
48963;SDS011;34776;48.180;16.420;2023-08-06T10:26:46;4.13;;;3.08;;
48963;SDS011;34776;48.180;16.420;2023-08-06T10:32:04;2.25;;;2.05;;
48963;SDS011;34776;48.180;16.420;2023-08-06T10:37:44;2.13;;;2.00;;
48963;SDS011;34776;48.180;16.420;2023-08-06T10:40:11;6.72;;;3.50;;
48963;SDS011;34776;48.180;16.420;2023-08-06T10:42:46;3.30;;;2.60;;
48963;SDS011;34776;48.180;16.420;2023-08-06T10:45:17;4.10;;;2.20;;
48963;SDS011;34776;48.180;16.420;2023-08-06T10:47:44;2.40;;;2.20;;
48963;SDS011;34776;48.180;16.420;2023-08-06T10:50:12;3.90;;;2.30;;
48963;SDS011;34776;48.180;16.420;2023-08-06T10:52:45;2.78;;;2.40;;
48963;SDS011;34776;48.180;16.420;2023-08-06T10:55:13;4.10;;;2.60;;
48963;SDS011;34776;48.180;16.420;2023-08-06T10:57:52;2.67;;;2.47;;
48963;SDS011;34776;48.180;16.420;2023-08-06T11:00:18;2.38;;;2.17;;
48963;SDS011;34776;48.180;16.420;2023-08-06T11:02:46;5.55;;;3.20;;
48963;SDS011;34776;48.180;16.420;2023-08-06T11:05:13;3.33;;;2.60;;
48963;SDS011;34776;48.180;16.420;2023-08-06T11:07:39;7.63;;;5.60;;
48963;SDS011;34776;48.180;16.420;2023-08-06T11:10:07;5.43;;;4.63;;
48963;SDS011;34776;48.180;16.420;2023-08-06T11:12:36;6.25;;;5.55;;
48963;SDS011;34776;48.180;16.420;2023-08-06T11:15:02;3.00;;;2.70;;
48963;SDS011;34776;48.180;16.420;2023-08-06T11:17:29;3.30;;;2.75;;
48963;SDS011;34776;48.180;16.420;2023-08-06T11:20:01;2.92;;;2.53;;
48963;SDS011;34776;48.180;16.420;2023-08-06T11:22:29;3.80;;;2.72;;
48963;SDS011;34776;48.180;16.420;2023-08-06T11:24:55;2.80;;;2.50;;
48963;SDS011;34776;48.180;16.420;2023-08-06T11:27:25;4.00;;;2.70;;
48963;SDS011;34776;48.180;16.420;2023-08-06T11:29:52;3.67;;;2.80;;
48963;SDS011;34776;48.180;16.420;2023-08-06T11:32:18;2.85;;;2.42;;
48963;SDS011;34776;48.180;16.420;2023-08-06T11:34:45;4.22;;;2.70;;
48963;SDS011;34776;48.180;16.420;2023-08-06T11:37:10;6.07;;;2.70;;
48963;SDS011;34776;48.180;16.420;2023-08-06T11:39:36;2.70;;;2.47;;
48963;SDS011;34776;48.180;16.420;2023-08-06T11:42:03;2.83;;;2.60;;
48963;SDS011;34776;48.180;16.420;2023-08-06T11:44:31;3.28;;;2.40;;
48963;SDS011;34776;48.180;16.420;2023-08-06T11:47:01;3.97;;;3.45;;
48963;SDS011;34776;48.180;16.420;2023-08-06T11:52:22;3.97;;;3.50;;
48963;SDS011;34776;48.180;16.420;2023-08-06T11:55:08;3.50;;;3.20;;
48963;SDS011;34776;48.180;16.420;2023-08-06T11:57:37;6.88;;;2.90;;
48963;SDS011;34776;48.180;16.420;2023-08-06T12:00:05;2.75;;;2.55;;
48963;SDS011;34776;48.180;16.420;2023-08-06T12:02:33;3.10;;;2.63;;
48963;SDS011;34776;48.180;16.420;2023-08-06T12:05:00;3.10;;;2.58;;
48963;SDS011;34776;48.180;16.420;2023-08-06T12:07:29;2.72;;;2.53;;
48963;SDS011;34776;48.180;16.420;2023-08-06T12:09:55;3.00;;;2.75;;
48963;SDS011;34776;48.180;16.420;2023-08-06T12:12:21;6.43;;;2.67;;
48963;SDS011;34776;48.180;16.420;2023-08-06T12:14:46;3.60;;;2.92;;
48963;SDS011;34776;48.180;16.420;2023-08-06T12:17:11;2.97;;;2.45;;
48963;SDS011;34776;48.180;16.420;2023-08-06T12:19:37;3.00;;;2.42;;
48963;SDS011;34776;48.180;16.420;2023-08-06T12:22:02;4.45;;;2.55;;
48963;SDS011;34776;48.180;16.420;2023-08-06T12:24:28;3.20;;;2.90;;
48963;SDS011;34776;48.180;16.420;2023-08-06T12:26:56;3.90;;;2.65;;
48963;SDS011;34776;48.180;16.420;2023-08-06T12:29:22;3.30;;;2.42;;
48963;SDS011;34776;48.180;16.420;2023-08-06T12:31:48;4.38;;;3.00;;
48963;SDS011;34776;48.180;16.420;2023-08-06T12:34:16;3.78;;;2.88;;
48963;SDS011;34776;48.180;16.420;2023-08-06T12:36:43;3.45;;;3.10;;
48963;SDS011;34776;48.180;16.420;2023-08-06T12:39:09;4.25;;;2.70;;
48963;SDS011;34776;48.180;16.420;2023-08-06T12:41:35;3.20;;;2.90;;
48963;SDS011;34776;48.180;16.420;2023-08-06T12:44:01;4.25;;;3.05;;
48963;SDS011;34776;48.180;16.420;2023-08-06T12:46:26;3.13;;;2.83;;
48963;SDS011;34776;48.180;16.420;2023-08-06T12:48:51;6.25;;;4.65;;
48963;SDS011;34776;48.180;16.420;2023-08-06T12:51:17;5.78;;;4.07;;
48963;SDS011;34776;48.180;16.420;2023-08-06T13:27:21;2.92;;;2.70;;
48963;SDS011;34776;48.180;16.420;2023-08-06T13:45:53;2.95;;;2.60;;
48963;SDS011;34776;48.180;16.420;2023-08-06T13:48:18;3.65;;;2.78;;
48963;SDS011;34776;48.180;16.420;2023-08-06T13:50:44;4.70;;;3.28;;
48963;SDS011;34776;48.180;16.420;2023-08-06T13:53:11;3.60;;;2.90;;
48963;SDS011;34776;48.180;16.420;2023-08-06T13:55:37;5.95;;;2.47;;
48963;SDS011;34776;48.180;16.420;2023-08-06T13:58:04;4.45;;;2.50;;
48963;SDS011;34776;48.180;16.420;2023-08-06T14:00:29;5.82;;;2.80;;
48963;SDS011;34776;48.180;16.420;2023-08-06T14:02:55;3.28;;;2.05;;
48963;SDS011;34776;48.180;16.420;2023-08-06T14:05:20;2.20;;;2.00;;
48963;SDS011;34776;48.180;16.420;2023-08-06T14:07:49;2.65;;;1.95;;
48963;SDS011;34776;48.180;16.420;2023-08-06T14:10:14;2.85;;;2.55;;
48963;SDS011;34776;48.180;16.420;2023-08-06T14:12:40;2.92;;;2.40;;
48963;SDS011;34776;48.180;16.420;2023-08-06T14:15:08;3.53;;;2.65;;
48963;SDS011;34776;48.180;16.420;2023-08-06T14:17:36;2.55;;;2.35;;
48963;SDS011;34776;48.180;16.420;2023-08-06T14:20:01;3.30;;;1.90;;
48963;SDS011;34776;48.180;16.420;2023-08-06T14:22:30;2.83;;;2.20;;
48963;SDS011;34776;48.180;16.420;2023-08-06T14:24:57;2.25;;;1.60;;
48963;SDS011;34776;48.180;16.420;2023-08-06T14:27:23;4.00;;;1.63;;
48963;SDS011;34776;48.180;16.420;2023-08-06T14:29:49;2.13;;;1.70;;
48963;SDS011;34776;48.180;16.420;2023-08-06T14:32:15;1.60;;;1.50;;
48963;SDS011;34776;48.180;16.420;2023-08-06T14:34:45;3.10;;;2.13;;
48963;SDS011;34776;48.180;16.420;2023-08-06T14:37:10;2.22;;;1.58;;
48963;SDS011;34776;48.180;16.420;2023-08-06T14:39:36;1.27;;;1.17;;
48963;SDS011;34776;48.180;16.420;2023-08-06T14:42:01;2.35;;;1.30;;
48963;SDS011;34776;48.180;16.420;2023-08-06T14:44:28;2.60;;;1.58;;
48963;SDS011;34776;48.180;16.420;2023-08-06T14:46:53;1.30;;;1.20;;
48963;SDS011;34776;48.180;16.420;2023-08-06T14:49:18;1.25;;;1.15;;
48963;SDS011;34776;48.180;16.420;2023-08-06T14:51:44;1.50;;;1.30;;
48963;SDS011;34776;48.180;16.420;2023-08-06T14:54:09;3.90;;;1.10;;
48963;SDS011;34776;48.180;16.420;2023-08-06T14:59:20;3.35;;;1.40;;
48963;SDS011;34776;48.180;16.420;2023-08-06T15:01:45;2.95;;;2.30;;
48963;SDS011;34776;48.180;16.420;2023-08-06T15:37:03;2.78;;;0.93;;
48963;SDS011;34776;48.180;16.420;2023-08-06T15:39:29;1.25;;;0.90;;
48963;SDS011;34776;48.180;16.420;2023-08-06T15:41:54;3.63;;;1.10;;
48963;SDS011;34776;48.180;16.420;2023-08-06T15:44:19;1.30;;;0.90;;
48963;SDS011;34776;48.180;16.420;2023-08-06T15:46:46;1.95;;;0.80;;
48963;SDS011;34776;48.180;16.420;2023-08-06T15:49:11;1.80;;;0.95;;
48963;SDS011;34776;48.180;16.420;2023-08-06T15:51:37;2.67;;;0.88;;
48963;SDS011;34776;48.180;16.420;2023-08-06T15:54:02;1.83;;;0.77;;
48963;SDS011;34776;48.180;16.420;2023-08-06T15:56:28;1.25;;;0.90;;
48963;SDS011;34776;48.180;16.420;2023-08-06T15:58:54;0.95;;;0.80;;
48963;SDS011;34776;48.180;16.420;2023-08-06T16:01:19;1.95;;;0.98;;
48963;SDS011;34776;48.180;16.420;2023-08-06T16:03:44;1.45;;;0.73;;
48963;SDS011;34776;48.180;16.420;2023-08-06T16:06:10;1.45;;;1.05;;